John M. Rivers (jr) — WDB8997 — position and weather

sailwx.info

Track history (hours):
 
Tides and Currents Weather Stations Pressure Air Temp Water Temp Dewpoint Dewpoint Depression Visibility Wind Speed Wind Dir Waves Ship Positions

John M. Rivers (jr)

Owner: INGRAM BARGE COMPANY, Nashville, TN. More information available from US FCC via Universal Licensing System and Coast Guard Vessel Documentation Center.

Last reported at 2014-Mar-01 20:06 UTC. Time now 2014-Nov-29 00:09 UTC.
Position N 39°03' W 084°53'.
Warning: this ship's position is months out of date.

Length 34 m; draft 3.1 m.

Type: Towing. MMSI: 366967620.

Date/timePositionNaut miles runAvg speedWind from/ knotsBaromVisibWave heightAir tempDewpointWater temp
2014-Mar-01 20:06N 39°03' W 084°53'5 5.5
2014-Mar-01 19:07N 39°07' W 084°48'1 0.9
2014-Mar-01 18:32N 39°07' W 084°48'0 0.1
2014-Mar-01 16:33N 39°07' W 084°48'0 0.0
2014-Mar-01 15:31N 39°07' W 084°48'0 0.3
2014-Mar-01 14:31N 39°07' W 084°48'0 0.5
2014-Mar-01 13:32N 39°07' W 084°48'4 3.9
2014-Mar-01 12:33N 39°08' W 084°43'6 6.4
2014-Mar-01 11:33N 39°04' W 084°36'7 7.2
2014-Mar-01 10:34N 39°07' W 084°28'6 5.9
2014-Mar-01 09:33N 39°03' W 084°23'5 5.3
2014-Mar-01 08:32N 38°59' W 084°18'0 0.0
2014-Mar-01 07:33N 38°59' W 084°18'3 2.5
2014-Mar-01 06:33N 38°57' W 084°17'5 4.9
2014-Mar-01 05:33N 38°52' W 084°14'1 0.7
2014-Mar-01 04:33N 38°52' W 084°14'4 3.6
2014-Mar-01 03:32N 38°48' W 084°13'7 0.5
2014-Feb-28 14:23N 38°46' W 084°04'4 4.5
2014-Feb-28 13:33N 38°47' W 084°09'3 2.6
2014-Feb-28 12:33N 38°48' W 084°12'4 3.8
2014-Feb-28 11:32N 38°51' W 084°14'4 3.9
2014-Feb-28 10:33N 38°55' W 084°15'4 4.2
2014-Feb-28 09:33N 38°59' W 084°18'4 4.1
2014-Feb-28 08:34N 39°02' W 084°21'4 4.1
2014-Feb-28 07:33N 39°04' W 084°26'4 3.8
2014-Feb-28 06:33N 39°07' W 084°28'3 3.3
2014-Feb-28 05:33N 39°06' W 084°32'3 3.2
2014-Feb-28 04:33N 39°05' W 084°36'4 4.0
2014-Feb-28 03:33N 39°06' W 084°41'1 0.7
2014-Feb-28 02:33N 39°06' W 084°41'0 0.1
2014-Feb-28 01:32N 39°06' W 084°41'0 0.1
2014-Feb-28 00:31N 39°06' W 084°41'0 0.0
2014-Feb-27 23:33N 39°06' W 084°41'0 0.0
2014-Feb-27 22:30N 39°06' W 084°41'  
2014-Feb-20 16:15N 39°04' W 084°53'5 6.9
2014-Feb-20 15:33N 39°07' W 084°47'4 4.2
2014-Feb-20 14:33N 39°07' W 084°42'6 5.7
2014-Feb-20 13:31N 39°05' W 084°35'6 6.6
2014-Feb-20 12:33N 39°07' W 084°27'6 6.0
2014-Feb-20 11:33N 39°03' W 084°23'4 4.5
2014-Feb-20 10:33N 38°60' W 084°18'0 0.0
2014-Feb-20 09:33N 38°60' W 084°18'0 0.2
2014-Feb-20 08:32N 39°00' W 084°18'1 0.7
2014-Feb-20 07:33N 38°59' W 084°18'1 1.4
2014-Feb-20 06:33N 38°58' W 084°18'6 6.1
2014-Feb-20 05:33N 38°53' W 084°14'1 0.9
2014-Feb-20 04:33N 38°52' W 084°14'0 0.1
2014-Feb-20 03:33N 38°52' W 084°14'2 1.9
2014-Feb-20 02:32N 38°50' W 084°14'4 3.6
2014-Feb-20 01:29N 38°48' W 084°10'  
Track history (hours):
 
Tides and Currents Weather Stations Pressure Air Temp Water Temp Dewpoint Dewpoint Depression Visibility Wind Speed Wind Dir Waves Ship Positions

John M. Rivers (jr)

Owner: INGRAM BARGE COMPANY, Nashville, TN. More information available from US FCC via Universal Licensing System and Coast Guard Vessel Documentation Center.

Last reported at 2014-Mar-01 20:06 UTC. Time now 2014-Nov-29 00:09 UTC.
Position N 39°03' W 084°53'.
Warning: this ship's position is months out of date.

Length 34 m; draft 3.1 m.

Type: Towing. MMSI: 366967620.

Date/timePositionNaut miles runAvg speedWind from/ knotsBaromVisibWave heightAir tempDewpointWater temp
2014-Mar-01 20:06N 39°03' W 084°53'5 5.5
2014-Mar-01 19:07N 39°07' W 084°48'1 0.9
2014-Mar-01 18:32N 39°07' W 084°48'0 0.1
2014-Mar-01 16:33N 39°07' W 084°48'0 0.0
2014-Mar-01 15:31N 39°07' W 084°48'0 0.3
2014-Mar-01 14:31N 39°07' W 084°48'0 0.5
2014-Mar-01 13:32N 39°07' W 084°48'4 3.9
2014-Mar-01 12:33N 39°08' W 084°43'6 6.4
2014-Mar-01 11:33N 39°04' W 084°36'7 7.2
2014-Mar-01 10:34N 39°07' W 084°28'6 5.9
2014-Mar-01 09:33N 39°03' W 084°23'5 5.3
2014-Mar-01 08:32N 38°59' W 084°18'0 0.0
2014-Mar-01 07:33N 38°59' W 084°18'3 2.5
2014-Mar-01 06:33N 38°57' W 084°17'5 4.9
2014-Mar-01 05:33N 38°52' W 084°14'1 0.7
2014-Mar-01 04:33N 38°52' W 084°14'4 3.6
2014-Mar-01 03:32N 38°48' W 084°13'7 0.5
2014-Feb-28 14:23N 38°46' W 084°04'4 4.5
2014-Feb-28 13:33N 38°47' W 084°09'3 2.6
2014-Feb-28 12:33N 38°48' W 084°12'4 3.8
2014-Feb-28 11:32N 38°51' W 084°14'4 3.9
2014-Feb-28 10:33N 38°55' W 084°15'4 4.2
2014-Feb-28 09:33N 38°59' W 084°18'4 4.1
2014-Feb-28 08:34N 39°02' W 084°21'4 4.1
2014-Feb-28 07:33N 39°04' W 084°26'4 3.8
2014-Feb-28 06:33N 39°07' W 084°28'3 3.3
2014-Feb-28 05:33N 39°06' W 084°32'3 3.2
2014-Feb-28 04:33N 39°05' W 084°36'4 4.0
2014-Feb-28 03:33N 39°06' W 084°41'1 0.7
2014-Feb-28 02:33N 39°06' W 084°41'0 0.1
2014-Feb-28 01:32N 39°06' W 084°41'0 0.1
2014-Feb-28 00:31N 39°06' W 084°41'0 0.0
2014-Feb-27 23:33N 39°06' W 084°41'0 0.0
2014-Feb-27 22:30N 39°06' W 084°41'  
2014-Feb-20 16:15N 39°04' W 084°53'5 6.9
2014-Feb-20 15:33N 39°07' W 084°47'4 4.2
2014-Feb-20 14:33N 39°07' W 084°42'6 5.7
2014-Feb-20 13:31N 39°05' W 084°35'6 6.6
2014-Feb-20 12:33N 39°07' W 084°27'6 6.0
2014-Feb-20 11:33N 39°03' W 084°23'4 4.5
2014-Feb-20 10:33N 38°60' W 084°18'0 0.0
2014-Feb-20 09:33N 38°60' W 084°18'0 0.2
2014-Feb-20 08:32N 39°00' W 084°18'1 0.7
2014-Feb-20 07:33N 38°59' W 084°18'1 1.4
2014-Feb-20 06:33N 38°58' W 084°18'6 6.1
2014-Feb-20 05:33N 38°53' W 084°14'1 0.9
2014-Feb-20 04:33N 38°52' W 084°14'0 0.1
2014-Feb-20 03:33N 38°52' W 084°14'2 1.9
2014-Feb-20 02:32N 38°50' W 084°14'4 3.6
2014-Feb-20 01:29N 38°48' W 084°10'  

Dump ship's entire track history